Terminal Aerodrome Forecast
Issued by NWS Newport/Morehead City, NC

Home | Current Version | Previous Version | Text Only | Print | Product List | Glossary On
Versions: 1 2 3 4 5 6 7 8 9 10 11 12 13
473
FTUS42 KMHX 281508 AAA
TAFEWN
TAF AMD
KEWN 281508Z 2815/2912 24010G16KT P6SM SKC
     FM282000 24006KT P6SM VCTS BKN040CB
     FM290200 23004KT P6SM SCT040=

USA.gov is the U.S. government's official web portal to all federal, state and local government web resources and services.